sensor_id;sensor_type;location;lat;lon;timestamp;P1;durP1;ratioP1;P2;durP2;ratioP2
13611;SDS011;6877;51.436;6.774;2023-04-24T00:01:26;2.40;;;1.70;;
13611;SDS011;6877;51.436;6.774;2023-04-24T00:03:55;2.22;;;2.03;;
13611;SDS011;6877;51.436;6.774;2023-04-24T00:06:25;2.00;;;1.63;;
13611;SDS011;6877;51.436;6.774;2023-04-24T00:08:59;4.18;;;2.67;;
13611;SDS011;6877;51.436;6.774;2023-04-24T00:11:31;8.43;;;3.38;;
13611;SDS011;6877;51.436;6.774;2023-04-24T00:13:58;10.13;;;3.20;;
13611;SDS011;6877;51.436;6.774;2023-04-24T00:16:24;8.32;;;2.78;;
13611;SDS011;6877;51.436;6.774;2023-04-24T00:18:50;5.10;;;3.50;;
13611;SDS011;6877;51.436;6.774;2023-04-24T00:21:23;5.78;;;3.65;;
13611;SDS011;6877;51.436;6.774;2023-04-24T00:23:51;4.60;;;3.28;;
13611;SDS011;6877;51.436;6.774;2023-04-24T00:26:18;4.50;;;3.30;;
13611;SDS011;6877;51.436;6.774;2023-04-24T00:28:45;3.17;;;2.60;;
13611;SDS011;6877;51.436;6.774;2023-04-24T00:31:11;2.92;;;2.40;;
13611;SDS011;6877;51.436;6.774;2023-04-24T00:33:43;5.10;;;3.28;;
13611;SDS011;6877;51.436;6.774;2023-04-24T00:36:14;3.95;;;2.55;;
13611;SDS011;6877;51.436;6.774;2023-04-24T00:38:41;5.13;;;2.67;;
13611;SDS011;6877;51.436;6.774;2023-04-24T00:41:12;2.33;;;2.13;;
13611;SDS011;6877;51.436;6.774;2023-04-24T00:43:39;3.35;;;2.47;;
13611;SDS011;6877;51.436;6.774;2023-04-24T00:46:05;7.28;;;3.65;;
13611;SDS011;6877;51.436;6.774;2023-04-24T00:48:32;6.40;;;3.95;;
13611;SDS011;6877;51.436;6.774;2023-04-24T00:50:58;5.30;;;3.80;;
13611;SDS011;6877;51.436;6.774;2023-04-24T00:53:25;4.32;;;3.13;;
13611;SDS011;6877;51.436;6.774;2023-04-24T00:55:51;6.90;;;4.32;;
13611;SDS011;6877;51.436;6.774;2023-04-24T00:58:18;5.03;;;3.30;;
13611;SDS011;6877;51.436;6.774;2023-04-24T01:00:44;5.75;;;3.65;;
13611;SDS011;6877;51.436;6.774;2023-04-24T01:03:12;5.38;;;3.80;;
13611;SDS011;6877;51.436;6.774;2023-04-24T01:05:40;6.18;;;4.20;;
13611;SDS011;6877;51.436;6.774;2023-04-24T01:08:06;6.43;;;4.30;;
13611;SDS011;6877;51.436;6.774;2023-04-24T01:10:33;5.80;;;3.83;;
13611;SDS011;6877;51.436;6.774;2023-04-24T01:13:02;6.47;;;5.05;;
13611;SDS011;6877;51.436;6.774;2023-04-24T01:15:28;6.82;;;4.50;;
13611;SDS011;6877;51.436;6.774;2023-04-24T01:18:00;7.05;;;4.80;;
13611;SDS011;6877;51.436;6.774;2023-04-24T01:20:26;6.05;;;4.70;;
13611;SDS011;6877;51.436;6.774;2023-04-24T01:22:54;7.28;;;4.88;;
13611;SDS011;6877;51.436;6.774;2023-04-24T01:25:27;11.43;;;5.35;;
13611;SDS011;6877;51.436;6.774;2023-04-24T01:27:54;7.78;;;5.38;;
13611;SDS011;6877;51.436;6.774;2023-04-24T01:30:25;8.07;;;5.80;;
13611;SDS011;6877;51.436;6.774;2023-04-24T01:32:53;7.95;;;5.55;;
13611;SDS011;6877;51.436;6.774;2023-04-24T01:35:19;8.45;;;5.68;;
13611;SDS011;6877;51.436;6.774;2023-04-24T01:37:46;7.68;;;4.93;;
13611;SDS011;6877;51.436;6.774;2023-04-24T01:40:12;11.05;;;6.35;;
13611;SDS011;6877;51.436;6.774;2023-04-24T01:42:44;10.15;;;6.40;;
13611;SDS011;6877;51.436;6.774;2023-04-24T01:45:16;10.57;;;6.10;;
13611;SDS011;6877;51.436;6.774;2023-04-24T01:47:47;11.70;;;5.78;;
13611;SDS011;6877;51.436;6.774;2023-04-24T01:50:15;7.53;;;5.68;;
13611;SDS011;6877;51.436;6.774;2023-04-24T01:52:42;12.90;;;6.22;;
13611;SDS011;6877;51.436;6.774;2023-04-24T01:55:09;9.07;;;6.60;;
13611;SDS011;6877;51.436;6.774;2023-04-24T01:57:36;10.30;;;6.45;;
13611;SDS011;6877;51.436;6.774;2023-04-24T02:00:03;9.43;;;6.10;;
13611;SDS011;6877;51.436;6.774;2023-04-24T02:02:35;8.82;;;6.47;;
13611;SDS011;6877;51.436;6.774;2023-04-24T02:05:02;8.77;;;6.25;;
13611;SDS011;6877;51.436;6.774;2023-04-24T02:07:28;9.98;;;6.45;;
13611;SDS011;6877;51.436;6.774;2023-04-24T02:10:00;17.20;;;7.30;;
13611;SDS011;6877;51.436;6.774;2023-04-24T02:12:27;13.23;;;6.97;;
13611;SDS011;6877;51.436;6.774;2023-04-24T02:14:53;11.35;;;6.90;;
13611;SDS011;6877;51.436;6.774;2023-04-24T02:17:24;11.57;;;7.55;;
13611;SDS011;6877;51.436;6.774;2023-04-24T02:19:51;13.23;;;7.25;;
13611;SDS011;6877;51.436;6.774;2023-04-24T02:22:17;14.50;;;7.40;;
13611;SDS011;6877;51.436;6.774;2023-04-24T02:24:49;14.07;;;7.50;;
13611;SDS011;6877;51.436;6.774;2023-04-24T02:27:15;13.98;;;9.10;;
13611;SDS011;6877;51.436;6.774;2023-04-24T02:29:41;14.52;;;8.88;;
13611;SDS011;6877;51.436;6.774;2023-04-24T02:32:08;17.98;;;8.10;;
13611;SDS011;6877;51.436;6.774;2023-04-24T02:34:43;21.60;;;8.20;;
13611;SDS011;6877;51.436;6.774;2023-04-24T02:37:14;15.65;;;9.82;;
13611;SDS011;6877;51.436;6.774;2023-04-24T02:39:40;18.85;;;9.48;;
13611;SDS011;6877;51.436;6.774;2023-04-24T02:42:07;15.30;;;10.13;;
13611;SDS011;6877;51.436;6.774;2023-04-24T02:44:34;14.80;;;9.48;;
13611;SDS011;6877;51.436;6.774;2023-04-24T02:47:00;18.83;;;9.23;;
13611;SDS011;6877;51.436;6.774;2023-04-24T02:49:26;15.80;;;9.10;;
13611;SDS011;6877;51.436;6.774;2023-04-24T02:51:53;15.65;;;8.93;;
13611;SDS011;6877;51.436;6.774;2023-04-24T02:54:24;19.90;;;9.75;;
13611;SDS011;6877;51.436;6.774;2023-04-24T02:56:50;16.65;;;9.88;;
13611;SDS011;6877;51.436;6.774;2023-04-24T02:59:17;24.85;;;10.38;;
13611;SDS011;6877;51.436;6.774;2023-04-24T03:01:43;16.90;;;11.18;;
13611;SDS011;6877;51.436;6.774;2023-04-24T03:04:09;18.73;;;11.15;;
13611;SDS011;6877;51.436;6.774;2023-04-24T03:06:41;16.98;;;10.55;;
13611;SDS011;6877;51.436;6.774;2023-04-24T03:09:07;24.08;;;12.07;;
13611;SDS011;6877;51.436;6.774;2023-04-24T03:11:34;20.92;;;11.68;;
13611;SDS011;6877;51.436;6.774;2023-04-24T03:14:00;25.77;;;12.32;;
13611;SDS011;6877;51.436;6.774;2023-04-24T03:16:26;24.70;;;12.18;;
13611;SDS011;6877;51.436;6.774;2023-04-24T03:18:58;27.30;;;12.02;;
13611;SDS011;6877;51.436;6.774;2023-04-24T03:21:24;21.15;;;11.90;;
13611;SDS011;6877;51.436;6.774;2023-04-24T03:23:55;24.35;;;11.80;;
13611;SDS011;6877;51.436;6.774;2023-04-24T03:26:22;17.40;;;10.63;;
13611;SDS011;6877;51.436;6.774;2023-04-24T03:28:48;30.55;;;12.32;;
13611;SDS011;6877;51.436;6.774;2023-04-24T03:31:14;16.67;;;11.30;;
13611;SDS011;6877;51.436;6.774;2023-04-24T03:33:41;24.70;;;11.60;;
13611;SDS011;6877;51.436;6.774;2023-04-24T03:36:08;23.30;;;12.80;;
13611;SDS011;6877;51.436;6.774;2023-04-24T03:38:34;21.25;;;11.98;;
13611;SDS011;6877;51.436;6.774;2023-04-24T03:41:05;23.33;;;10.85;;
13611;SDS011;6877;51.436;6.774;2023-04-24T03:43:37;21.67;;;11.85;;
13611;SDS011;6877;51.436;6.774;2023-04-24T03:46:03;25.48;;;10.57;;
13611;SDS011;6877;51.436;6.774;2023-04-24T03:48:31;23.40;;;11.77;;
13611;SDS011;6877;51.436;6.774;2023-04-24T03:50:57;22.13;;;12.20;;
13611;SDS011;6877;51.436;6.774;2023-04-24T03:53:23;19.27;;;12.15;;
13611;SDS011;6877;51.436;6.774;2023-04-24T03:55:50;19.92;;;11.00;;
13611;SDS011;6877;51.436;6.774;2023-04-24T03:58:16;19.52;;;11.13;;
13611;SDS011;6877;51.436;6.774;2023-04-24T04:00:43;18.08;;;10.82;;
13611;SDS011;6877;51.436;6.774;2023-04-24T04:03:10;19.20;;;10.77;;
13611;SDS011;6877;51.436;6.774;2023-04-24T04:05:41;23.65;;;13.02;;
13611;SDS011;6877;51.436;6.774;2023-04-24T04:08:13;20.73;;;12.73;;
13611;SDS011;6877;51.436;6.774;2023-04-24T04:10:44;19.50;;;10.52;;
13611;SDS011;6877;51.436;6.774;2023-04-24T04:13:15;23.05;;;11.65;;
13611;SDS011;6877;51.436;6.774;2023-04-24T04:15:47;24.15;;;12.95;;
13611;SDS011;6877;51.436;6.774;2023-04-24T04:18:13;28.38;;;14.43;;
13611;SDS011;6877;51.436;6.774;2023-04-24T04:20:45;23.75;;;13.98;;
13611;SDS011;6877;51.436;6.774;2023-04-24T04:23:11;34.83;;;15.50;;
13611;SDS011;6877;51.436;6.774;2023-04-24T04:25:37;20.70;;;13.27;;
13611;SDS011;6877;51.436;6.774;2023-04-24T04:28:04;28.20;;;14.02;;
13611;SDS011;6877;51.436;6.774;2023-04-24T04:30:30;19.42;;;11.82;;
13611;SDS011;6877;51.436;6.774;2023-04-24T04:32:58;24.00;;;11.75;;
13611;SDS011;6877;51.436;6.774;2023-04-24T04:35:30;19.58;;;11.20;;
13611;SDS011;6877;51.436;6.774;2023-04-24T04:37:56;27.85;;;13.48;;
13611;SDS011;6877;51.436;6.774;2023-04-24T04:40:24;27.75;;;15.48;;
13611;SDS011;6877;51.436;6.774;2023-04-24T04:42:51;18.67;;;12.40;;
13611;SDS011;6877;51.436;6.774;2023-04-24T04:45:19;23.48;;;12.50;;
13611;SDS011;6877;51.436;6.774;2023-04-24T04:47:51;20.45;;;12.32;;
13611;SDS011;6877;51.436;6.774;2023-04-24T04:50:17;20.35;;;11.82;;
13611;SDS011;6877;51.436;6.774;2023-04-24T04:52:45;21.23;;;11.52;;
13611;SDS011;6877;51.436;6.774;2023-04-24T04:55:12;16.50;;;10.40;;
13611;SDS011;6877;51.436;6.774;2023-04-24T04:57:39;19.60;;;10.98;;
13611;SDS011;6877;51.436;6.774;2023-04-24T05:00:05;17.58;;;10.52;;
13611;SDS011;6877;51.436;6.774;2023-04-24T05:02:33;28.63;;;10.85;;
13611;SDS011;6877;51.436;6.774;2023-04-24T05:05:05;16.35;;;9.82;;
13611;SDS011;6877;51.436;6.774;2023-04-24T05:07:32;16.98;;;9.82;;
13611;SDS011;6877;51.436;6.774;2023-04-24T05:09:58;18.58;;;10.15;;
13611;SDS011;6877;51.436;6.774;2023-04-24T05:12:30;17.67;;;9.65;;
13611;SDS011;6877;51.436;6.774;2023-04-24T05:14:56;20.95;;;9.55;;
13611;SDS011;6877;51.436;6.774;2023-04-24T05:17:22;14.15;;;9.32;;
13611;SDS011;6877;51.436;6.774;2023-04-24T05:19:54;18.27;;;9.15;;
13611;SDS011;6877;51.436;6.774;2023-04-24T05:22:25;21.48;;;9.75;;
13611;SDS011;6877;51.436;6.774;2023-04-24T05:24:51;14.50;;;9.25;;
13611;SDS011;6877;51.436;6.774;2023-04-24T05:27:24;16.58;;;9.40;;
13611;SDS011;6877;51.436;6.774;2023-04-24T05:29:55;16.95;;;9.98;;
13611;SDS011;6877;51.436;6.774;2023-04-24T05:32:27;16.95;;;10.05;;
13611;SDS011;6877;51.436;6.774;2023-04-24T05:34:53;18.83;;;11.00;;
13611;SDS011;6877;51.436;6.774;2023-04-24T05:37:25;18.02;;;10.60;;
13611;SDS011;6877;51.436;6.774;2023-04-24T05:39:51;22.30;;;11.85;;
13611;SDS011;6877;51.436;6.774;2023-04-24T05:42:18;21.67;;;12.10;;
13611;SDS011;6877;51.436;6.774;2023-04-24T05:44:49;23.35;;;12.40;;
13611;SDS011;6877;51.436;6.774;2023-04-24T05:47:15;20.95;;;12.40;;
13611;SDS011;6877;51.436;6.774;2023-04-24T05:49:47;18.60;;;10.43;;
13611;SDS011;6877;51.436;6.774;2023-04-24T05:52:14;21.65;;;11.57;;
13611;SDS011;6877;51.436;6.774;2023-04-24T05:54:40;22.38;;;12.30;;
13611;SDS011;6877;51.436;6.774;2023-04-24T05:57:12;22.33;;;12.20;;
13611;SDS011;6877;51.436;6.774;2023-04-24T05:59:40;22.90;;;12.50;;
13611;SDS011;6877;51.436;6.774;2023-04-24T06:02:06;21.02;;;11.95;;
13611;SDS011;6877;51.436;6.774;2023-04-24T06:04:38;19.20;;;10.75;;
13611;SDS011;6877;51.436;6.774;2023-04-24T06:07:04;18.67;;;10.93;;
13611;SDS011;6877;51.436;6.774;2023-04-24T06:09:31;23.23;;;11.35;;
13611;SDS011;6877;51.436;6.774;2023-04-24T06:11:57;15.55;;;9.57;;
13611;SDS011;6877;51.436;6.774;2023-04-24T06:14:29;15.40;;;9.65;;
13611;SDS011;6877;51.436;6.774;2023-04-24T06:17:00;20.33;;;10.57;;
13611;SDS011;6877;51.436;6.774;2023-04-24T06:19:27;19.98;;;10.90;;
13611;SDS011;6877;51.436;6.774;2023-04-24T06:21:53;17.77;;;10.75;;
13611;SDS011;6877;51.436;6.774;2023-04-24T06:24:27;20.70;;;12.10;;
13611;SDS011;6877;51.436;6.774;2023-04-24T06:26:54;22.30;;;12.32;;
13611;SDS011;6877;51.436;6.774;2023-04-24T06:29:22;21.92;;;12.23;;
13611;SDS011;6877;51.436;6.774;2023-04-24T06:31:49;18.02;;;10.45;;
13611;SDS011;6877;51.436;6.774;2023-04-24T06:34:15;23.15;;;11.35;;
13611;SDS011;6877;51.436;6.774;2023-04-24T06:36:41;19.63;;;11.38;;
13611;SDS011;6877;51.436;6.774;2023-04-24T06:39:13;17.95;;;10.68;;
13611;SDS011;6877;51.436;6.774;2023-04-24T06:41:39;29.23;;;12.93;;
13611;SDS011;6877;51.436;6.774;2023-04-24T06:44:06;18.85;;;10.70;;
13611;SDS011;6877;51.436;6.774;2023-04-24T06:46:37;18.67;;;10.50;;
13611;SDS011;6877;51.436;6.774;2023-04-24T06:49:03;21.30;;;11.35;;
13611;SDS011;6877;51.436;6.774;2023-04-24T06:51:35;21.02;;;12.35;;
13611;SDS011;6877;51.436;6.774;2023-04-24T06:54:01;21.65;;;10.70;;
13611;SDS011;6877;51.436;6.774;2023-04-24T06:56:27;17.38;;;8.85;;
13611;SDS011;6877;51.436;6.774;2023-04-24T06:58:55;10.80;;;7.07;;
13611;SDS011;6877;51.436;6.774;2023-04-24T07:01:26;11.40;;;6.65;;
13611;SDS011;6877;51.436;6.774;2023-04-24T07:03:58;11.43;;;6.38;;
13611;SDS011;6877;51.436;6.774;2023-04-24T07:06:30;8.73;;;5.60;;
13611;SDS011;6877;51.436;6.774;2023-04-24T07:08:57;10.93;;;6.20;;
13611;SDS011;6877;51.436;6.774;2023-04-24T07:11:30;9.98;;;5.43;;
13611;SDS011;6877;51.436;6.774;2023-04-24T07:13:57;8.50;;;6.05;;
13611;SDS011;6877;51.436;6.774;2023-04-24T07:16:23;11.60;;;5.80;;
13611;SDS011;6877;51.436;6.774;2023-04-24T07:18:50;8.13;;;5.03;;
13611;SDS011;6877;51.436;6.774;2023-04-24T07:21:17;12.27;;;5.15;;
13611;SDS011;6877;51.436;6.774;2023-04-24T07:23:43;7.47;;;3.95;;
13611;SDS011;6877;51.436;6.774;2023-04-24T07:26:10;5.88;;;3.85;;
13611;SDS011;6877;51.436;6.774;2023-04-24T07:28:36;4.88;;;3.63;;
13611;SDS011;6877;51.436;6.774;2023-04-24T07:31:08;4.57;;;3.35;;
13611;SDS011;6877;51.436;6.774;2023-04-24T07:33:34;8.63;;;4.03;;
13611;SDS011;6877;51.436;6.774;2023-04-24T07:36:02;5.85;;;3.42;;
13611;SDS011;6877;51.436;6.774;2023-04-24T07:38:31;5.18;;;3.53;;
13611;SDS011;6877;51.436;6.774;2023-04-24T07:40:58;4.18;;;3.33;;
13611;SDS011;6877;51.436;6.774;2023-04-24T07:43:24;4.72;;;3.40;;
13611;SDS011;6877;51.436;6.774;2023-04-24T07:45:55;6.72;;;2.85;;
13611;SDS011;6877;51.436;6.774;2023-04-24T07:48:22;3.17;;;2.35;;
13611;SDS011;6877;51.436;6.774;2023-04-24T07:50:48;2.22;;;2.00;;
13611;SDS011;6877;51.436;6.774;2023-04-24T07:53:15;3.03;;;1.80;;
13611;SDS011;6877;51.436;6.774;2023-04-24T07:55:41;4.32;;;1.77;;
13611;SDS011;6877;51.436;6.774;2023-04-24T07:58:12;3.20;;;2.13;;
13611;SDS011;6877;51.436;6.774;2023-04-24T08:00:39;7.18;;;4.80;;
13611;SDS011;6877;51.436;6.774;2023-04-24T08:03:10;11.50;;;4.05;;
13611;SDS011;6877;51.436;6.774;2023-04-24T08:05:43;3.42;;;2.83;;
13611;SDS011;6877;51.436;6.774;2023-04-24T08:08:14;6.68;;;3.30;;
13611;SDS011;6877;51.436;6.774;2023-04-24T08:10:41;5.63;;;3.20;;
13611;SDS011;6877;51.436;6.774;2023-04-24T08:13:12;6.22;;;3.80;;
13611;SDS011;6877;51.436;6.774;2023-04-24T08:15:44;5.47;;;3.60;;
13611;SDS011;6877;51.436;6.774;2023-04-24T08:18:15;4.65;;;3.75;;
13611;SDS011;6877;51.436;6.774;2023-04-24T08:20:42;4.90;;;3.63;;
13611;SDS011;6877;51.436;6.774;2023-04-24T08:23:13;4.93;;;3.40;;
13611;SDS011;6877;51.436;6.774;2023-04-24T08:25:40;5.72;;;3.65;;
13611;SDS011;6877;51.436;6.774;2023-04-24T08:28:11;6.18;;;3.40;;
13611;SDS011;6877;51.436;6.774;2023-04-24T08:30:42;5.80;;;2.67;;
13611;SDS011;6877;51.436;6.774;2023-04-24T08:33:09;4.35;;;2.78;;
13611;SDS011;6877;51.436;6.774;2023-04-24T08:35:35;3.33;;;2.92;;
13611;SDS011;6877;51.436;6.774;2023-04-24T08:38:05;3.58;;;2.28;;
13611;SDS011;6877;51.436;6.774;2023-04-24T08:40:37;4.05;;;3.08;;
13611;SDS011;6877;51.436;6.774;2023-04-24T08:43:09;7.13;;;2.20;;
13611;SDS011;6877;51.436;6.774;2023-04-24T08:45:36;2.22;;;1.77;;
13611;SDS011;6877;51.436;6.774;2023-04-24T08:48:04;3.40;;;2.28;;
13611;SDS011;6877;51.436;6.774;2023-04-24T08:50:32;3.05;;;1.80;;
13611;SDS011;6877;51.436;6.774;2023-04-24T08:53:00;4.43;;;1.83;;
13611;SDS011;6877;51.436;6.774;2023-04-24T08:55:27;2.10;;;1.90;;
13611;SDS011;6877;51.436;6.774;2023-04-24T08:57:56;1.85;;;1.75;;
13611;SDS011;6877;51.436;6.774;2023-04-24T09:00:23;2.05;;;1.85;;
13611;SDS011;6877;51.436;6.774;2023-04-24T09:02:52;2.90;;;1.88;;
13611;SDS011;6877;51.436;6.774;2023-04-24T09:05:19;6.28;;;3.60;;
13611;SDS011;6877;51.436;6.774;2023-04-24T09:07:53;9.05;;;5.13;;
13611;SDS011;6877;51.436;6.774;2023-04-24T09:10:21;10.20;;;5.65;;
13611;SDS011;6877;51.436;6.774;2023-04-24T09:12:52;9.00;;;6.28;;
13611;SDS011;6877;51.436;6.774;2023-04-24T09:15:20;14.02;;;7.45;;
13611;SDS011;6877;51.436;6.774;2023-04-24T09:17:47;11.35;;;6.97;;
13611;SDS011;6877;51.436;6.774;2023-04-24T09:20:19;14.48;;;6.72;;
13611;SDS011;6877;51.436;6.774;2023-04-24T09:22:46;18.88;;;6.63;;
13611;SDS011;6877;51.436;6.774;2023-04-24T09:25:15;12.40;;;7.07;;
13611;SDS011;6877;51.436;6.774;2023-04-24T09:27:42;15.90;;;7.93;;
13611;SDS011;6877;51.436;6.774;2023-04-24T09:30:10;14.90;;;7.28;;
13611;SDS011;6877;51.436;6.774;2023-04-24T09:32:37;10.00;;;5.60;;
13611;SDS011;6877;51.436;6.774;2023-04-24T09:37:46;9.32;;;5.50;;
13611;SDS011;6877;51.436;6.774;2023-04-24T09:40:17;16.92;;;9.02;;
13611;SDS011;6877;51.436;6.774;2023-04-24T09:42:45;9.80;;;6.78;;
13611;SDS011;6877;51.436;6.774;2023-04-24T09:45:17;10.85;;;7.25;;
13611;SDS011;6877;51.436;6.774;2023-04-24T09:47:52;18.52;;;7.93;;
13611;SDS011;6877;51.436;6.774;2023-04-24T09:50:26;12.02;;;7.10;;
13611;SDS011;6877;51.436;6.774;2023-04-24T09:52:56;13.27;;;7.30;;
13611;SDS011;6877;51.436;6.774;2023-04-24T09:55:24;12.90;;;6.57;;
13611;SDS011;6877;51.436;6.774;2023-04-24T09:58:00;13.23;;;6.90;;
13611;SDS011;6877;51.436;6.774;2023-04-24T10:00:31;14.30;;;7.85;;
13611;SDS011;6877;51.436;6.774;2023-04-24T10:05:30;16.17;;;7.70;;
13611;SDS011;6877;51.436;6.774;2023-04-24T10:08:09;14.80;;;8.23;;
13611;SDS011;6877;51.436;6.774;2023-04-24T10:10:44;15.75;;;8.50;;
13611;SDS011;6877;51.436;6.774;2023-04-24T10:13:12;15.90;;;7.35;;
13611;SDS011;6877;51.436;6.774;2023-04-24T10:15:40;14.93;;;7.50;;
13611;SDS011;6877;51.436;6.774;2023-04-24T10:18:08;14.65;;;6.90;;
13611;SDS011;6877;51.436;6.774;2023-04-24T10:20:36;22.33;;;7.35;;
13611;SDS011;6877;51.436;6.774;2023-04-24T10:23:05;17.95;;;6.95;;
13611;SDS011;6877;51.436;6.774;2023-04-24T10:25:33;9.27;;;5.65;;
13611;SDS011;6877;51.436;6.774;2023-04-24T10:28:06;12.15;;;6.05;;
13611;SDS011;6877;51.436;6.774;2023-04-24T10:30:33;13.05;;;5.68;;
13611;SDS011;6877;51.436;6.774;2023-04-24T10:33:03;13.55;;;6.35;;
13611;SDS011;6877;51.436;6.774;2023-04-24T10:35:34;15.82;;;5.85;;
13611;SDS011;6877;51.436;6.774;2023-04-24T10:38:05;16.50;;;7.00;;
13611;SDS011;6877;51.436;6.774;2023-04-24T10:40:35;11.27;;;6.15;;
13611;SDS011;6877;51.436;6.774;2023-04-24T10:43:03;16.33;;;6.47;;
13611;SDS011;6877;51.436;6.774;2023-04-24T10:45:35;18.17;;;6.55;;
13611;SDS011;6877;51.436;6.774;2023-04-24T10:48:08;19.23;;;6.53;;
13611;SDS011;6877;51.436;6.774;2023-04-24T10:50:43;12.00;;;5.80;;
13611;SDS011;6877;51.436;6.774;2023-04-24T10:53:13;15.70;;;6.72;;
13611;SDS011;6877;51.436;6.774;2023-04-24T10:55:47;17.33;;;7.05;;
13611;SDS011;6877;51.436;6.774;2023-04-24T10:58:15;15.65;;;7.15;;
13611;SDS011;6877;51.436;6.774;2023-04-24T11:00:54;18.02;;;7.80;;
13611;SDS011;6877;51.436;6.774;2023-04-24T11:03:23;18.08;;;7.30;;
13611;SDS011;6877;51.436;6.774;2023-04-24T11:05:53;15.68;;;7.28;;
13611;SDS011;6877;51.436;6.774;2023-04-24T11:08:25;15.85;;;7.30;;
13611;SDS011;6877;51.436;6.774;2023-04-24T11:10:57;14.52;;;6.85;;
13611;SDS011;6877;51.436;6.774;2023-04-24T11:13:26;14.02;;;6.78;;
13611;SDS011;6877;51.436;6.774;2023-04-24T11:18:52;14.93;;;6.43;;
13611;SDS011;6877;51.436;6.774;2023-04-24T11:21:44;19.02;;;6.40;;
13611;SDS011;6877;51.436;6.774;2023-04-24T11:26:55;18.05;;;7.22;;
13611;SDS011;6877;51.436;6.774;2023-04-24T11:29:37;10.77;;;5.32;;
13611;SDS011;6877;51.436;6.774;2023-04-24T11:32:15;18.67;;;5.43;;
13611;SDS011;6877;51.436;6.774;2023-04-24T11:34:58;6.90;;;4.55;;
13611;SDS011;6877;51.436;6.774;2023-04-24T11:37:39;9.00;;;4.60;;
13611;SDS011;6877;51.436;6.774;2023-04-24T11:40:08;14.55;;;4.57;;
13611;SDS011;6877;51.436;6.774;2023-04-24T11:42:38;13.20;;;4.85;;
13611;SDS011;6877;51.436;6.774;2023-04-24T11:45:15;14.27;;;5.40;;
13611;SDS011;6877;51.436;6.774;2023-04-24T11:47:44;15.75;;;5.80;;
13611;SDS011;6877;51.436;6.774;2023-04-24T11:50:12;14.23;;;5.82;;
13611;SDS011;6877;51.436;6.774;2023-04-24T11:52:45;7.80;;;4.65;;
13611;SDS011;6877;51.436;6.774;2023-04-24T11:57:45;12.55;;;4.47;;
13611;SDS011;6877;51.436;6.774;2023-04-24T12:00:22;9.57;;;4.35;;
13611;SDS011;6877;51.436;6.774;2023-04-24T12:05:37;7.50;;;4.10;;
13611;SDS011;6877;51.436;6.774;2023-04-24T12:08:05;10.27;;;5.22;;
13611;SDS011;6877;51.436;6.774;2023-04-24T12:10:36;13.23;;;5.18;;
13611;SDS011;6877;51.436;6.774;2023-04-24T12:13:08;8.05;;;4.50;;
13611;SDS011;6877;51.436;6.774;2023-04-24T12:15:39;10.07;;;5.68;;
13611;SDS011;6877;51.436;6.774;2023-04-24T12:18:12;15.23;;;5.43;;
13611;SDS011;6877;51.436;6.774;2023-04-24T12:20:43;12.00;;;5.72;;
13611;SDS011;6877;51.436;6.774;2023-04-24T12:23:10;11.85;;;5.00;;
13611;SDS011;6877;51.436;6.774;2023-04-24T12:25:38;9.20;;;5.15;;
13611;SDS011;6877;51.436;6.774;2023-04-24T12:30:32;9.95;;;4.82;;
13611;SDS011;6877;51.436;6.774;2023-04-24T12:33:06;9.23;;;4.38;;
13611;SDS011;6877;51.436;6.774;2023-04-24T12:35:33;11.48;;;4.15;;
13611;SDS011;6877;51.436;6.774;2023-04-24T12:38:07;3.67;;;3.30;;
13611;SDS011;6877;51.436;6.774;2023-04-24T12:40:35;3.95;;;3.10;;
13611;SDS011;6877;51.436;6.774;2023-04-24T12:43:02;4.15;;;2.78;;
13611;SDS011;6877;51.436;6.774;2023-04-24T12:45:38;9.02;;;3.10;;
13611;SDS011;6877;51.436;6.774;2023-04-24T12:48:05;5.05;;;2.70;;
13611;SDS011;6877;51.436;6.774;2023-04-24T12:50:36;5.13;;;2.90;;
13611;SDS011;6877;51.436;6.774;2023-04-24T12:53:04;8.25;;;3.35;;
13611;SDS011;6877;51.436;6.774;2023-04-24T12:55:31;8.38;;;2.97;;
13611;SDS011;6877;51.436;6.774;2023-04-24T12:57:58;6.15;;;3.65;;
13611;SDS011;6877;51.436;6.774;2023-04-24T13:00:25;4.43;;;2.80;;
13611;SDS011;6877;51.436;6.774;2023-04-24T13:02:51;3.10;;;2.20;;
13611;SDS011;6877;51.436;6.774;2023-04-24T13:05:23;5.00;;;2.50;;
13611;SDS011;6877;51.436;6.774;2023-04-24T13:07:49;5.22;;;1.85;;
13611;SDS011;6877;51.436;6.774;2023-04-24T13:10:15;5.70;;;1.98;;
13611;SDS011;6877;51.436;6.774;2023-04-24T13:12:47;6.78;;;3.17;;
13611;SDS011;6877;51.436;6.774;2023-04-24T13:15:13;4.65;;;2.30;;
13611;SDS011;6877;51.436;6.774;2023-04-24T13:17:40;9.32;;;3.00;;
13611;SDS011;6877;51.436;6.774;2023-04-24T13:20:06;9.30;;;2.22;;
13611;SDS011;6877;51.436;6.774;2023-04-24T13:22:33;2.88;;;2.45;;
13611;SDS011;6877;51.436;6.774;2023-04-24T13:25:05;5.63;;;2.63;;
13611;SDS011;6877;51.436;6.774;2023-04-24T13:27:40;6.10;;;3.22;;
13611;SDS011;6877;51.436;6.774;2023-04-24T13:30:06;3.58;;;2.00;;
13611;SDS011;6877;51.436;6.774;2023-04-24T13:32:33;4.97;;;2.92;;
13611;SDS011;6877;51.436;6.774;2023-04-24T13:35:01;7.00;;;2.45;;
13611;SDS011;6877;51.436;6.774;2023-04-24T13:37:28;4.75;;;2.03;;
13611;SDS011;6877;51.436;6.774;2023-04-24T13:39:54;8.20;;;2.75;;
13611;SDS011;6877;51.436;6.774;2023-04-24T13:42:21;7.13;;;2.95;;
13611;SDS011;6877;51.436;6.774;2023-04-24T13:44:47;3.95;;;2.28;;
13611;SDS011;6877;51.436;6.774;2023-04-24T13:47:14;4.60;;;2.10;;
13611;SDS011;6877;51.436;6.774;2023-04-24T13:49:41;4.50;;;2.03;;
13611;SDS011;6877;51.436;6.774;2023-04-24T13:52:07;4.07;;;2.00;;
13611;SDS011;6877;51.436;6.774;2023-04-24T13:54:34;4.57;;;2.33;;
13611;SDS011;6877;51.436;6.774;2023-04-24T13:57:00;3.08;;;1.77;;
13611;SDS011;6877;51.436;6.774;2023-04-24T13:59:28;2.03;;;1.70;;
13611;SDS011;6877;51.436;6.774;2023-04-24T14:01:55;6.30;;;2.25;;
13611;SDS011;6877;51.436;6.774;2023-04-24T14:04:21;4.75;;;2.17;;
13611;SDS011;6877;51.436;6.774;2023-04-24T14:06:50;4.85;;;2.40;;
13611;SDS011;6877;51.436;6.774;2023-04-24T14:09:22;7.53;;;2.72;;
13611;SDS011;6877;51.436;6.774;2023-04-24T14:11:53;2.97;;;2.28;;
13611;SDS011;6877;51.436;6.774;2023-04-24T14:14:20;9.57;;;2.60;;
13611;SDS011;6877;51.436;6.774;2023-04-24T14:16:46;5.75;;;2.15;;
13611;SDS011;6877;51.436;6.774;2023-04-24T14:19:13;3.47;;;1.80;;
13611;SDS011;6877;51.436;6.774;2023-04-24T14:21:44;4.95;;;1.92;;
13611;SDS011;6877;51.436;6.774;2023-04-24T14:24:10;6.75;;;2.25;;
13611;SDS011;6877;51.436;6.774;2023-04-24T14:26:37;2.58;;;2.35;;
13611;SDS011;6877;51.436;6.774;2023-04-24T14:29:03;2.17;;;2.03;;
13611;SDS011;6877;51.436;6.774;2023-04-24T14:31:30;3.55;;;2.10;;
13611;SDS011;6877;51.436;6.774;2023-04-24T14:34:02;3.42;;;2.00;;
13611;SDS011;6877;51.436;6.774;2023-04-24T14:36:33;2.55;;;2.05;;
13611;SDS011;6877;51.436;6.774;2023-04-24T14:39:00;2.63;;;2.22;;
13611;SDS011;6877;51.436;6.774;2023-04-24T14:41:29;2.92;;;1.92;;
13611;SDS011;6877;51.436;6.774;2023-04-24T14:43:55;3.08;;;1.90;;
13611;SDS011;6877;51.436;6.774;2023-04-24T14:46:27;4.53;;;2.20;;
13611;SDS011;6877;51.436;6.774;2023-04-24T14:48:53;6.38;;;2.60;;
13611;SDS011;6877;51.436;6.774;2023-04-24T14:51:20;7.78;;;3.15;;
13611;SDS011;6877;51.436;6.774;2023-04-24T14:53:46;3.60;;;2.30;;
13611;SDS011;6877;51.436;6.774;2023-04-24T14:56:13;4.53;;;3.35;;
13611;SDS011;6877;51.436;6.774;2023-04-24T14:58:40;7.40;;;3.15;;
13611;SDS011;6877;51.436;6.774;2023-04-24T15:01:06;3.33;;;2.67;;
13611;SDS011;6877;51.436;6.774;2023-04-24T15:03:33;7.70;;;2.90;;
13611;SDS011;6877;51.436;6.774;2023-04-24T15:06:04;4.88;;;3.17;;
13611;SDS011;6877;51.436;6.774;2023-04-24T15:08:31;6.05;;;3.88;;
13611;SDS011;6877;51.436;6.774;2023-04-24T15:10:57;8.75;;;2.60;;
13611;SDS011;6877;51.436;6.774;2023-04-24T15:13:24;4.45;;;2.92;;
13611;SDS011;6877;51.436;6.774;2023-04-24T15:15:51;4.25;;;2.38;;
13611;SDS011;6877;51.436;6.774;2023-04-24T15:18:17;8.57;;;2.60;;